Terminal Aerodrome Forecast
Issued by NWS Bismarck, ND

Home | Current Version | Previous Version | Text Only | Print | Product List | Glossary Off
Versions: 1 2 3 4 5 6 7 8 9 10 11 12 13 14 15 16 17 18 19 20 21 22

000
FTUS43 KBIS 232331
TAFBIS
TAF
KBIS 232331Z 2400/2424 03009KT P6SM SCT015 BKN025
      TEMPO 2401/2404 BKN015
     FM240500 02008KT P6SM SCT015
     FM240800 01007KT P6SM BKN020
     FM241200 35006KT 4SM BR BKN010
     FM241600 33008KT P6SM BKN020
     FM242100 33009KT P6SM BKN035=

USA.gov is the U.S. government's official web portal to all federal, state and local government web resources and services.